createdAt,value
2024-03-16T00:00:18.265Z,0.30
2024-03-16T00:02:45.886Z,0.33
2024-03-16T00:05:12.695Z,0.20
2024-03-16T00:07:39.476Z,0.30
2024-03-16T00:10:07.708Z,0.40
2024-03-16T00:12:35.862Z,0.20
2024-03-16T00:15:02.703Z,0.23
2024-03-16T00:17:31.611Z,0.20
2024-03-16T00:19:58.402Z,0.20
2024-03-16T00:22:25.342Z,0.30
2024-03-16T00:24:53.634Z,0.40
2024-03-16T00:27:20.476Z,0.20
2024-03-16T00:29:47.242Z,0.20
2024-03-16T00:32:14.040Z,0.30
2024-03-16T00:34:40.885Z,0.20
2024-03-16T00:37:09.876Z,0.20
2024-03-16T00:39:36.815Z,0.23
2024-03-16T00:42:03.594Z,0.20
2024-03-16T00:44:31.216Z,0.20
2024-03-16T00:46:58.017Z,0.20
2024-03-16T00:49:25.510Z,0.27
2024-03-16T00:51:52.339Z,0.30
2024-03-16T00:54:19.232Z,0.40
2024-03-16T00:56:47.350Z,0.30
2024-03-16T00:59:14.418Z,0.20
2024-03-16T01:01:41.311Z,0.33
2024-03-16T01:04:08.823Z,0.40
2024-03-16T01:06:35.709Z,0.20
2024-03-16T01:09:02.540Z,0.23
2024-03-16T01:11:29.410Z,0.30
2024-03-16T01:13:56.285Z,0.37
2024-03-16T01:16:24.339Z,0.30
2024-03-16T01:18:51.147Z,0.40
2024-03-16T01:21:17.917Z,0.23
2024-03-16T01:23:44.775Z,0.40
2024-03-16T01:26:11.543Z,0.40
2024-03-16T01:28:38.312Z,0.30
2024-03-16T01:31:05.242Z,0.33
2024-03-16T01:33:32.131Z,0.30
2024-03-16T01:35:59.496Z,0.40
2024-03-16T01:38:26.306Z,0.40
2024-03-16T01:40:53.292Z,0.40
2024-03-16T01:43:20.102Z,0.40
2024-03-16T01:45:47.148Z,0.30
2024-03-16T01:48:15.518Z,0.30
2024-03-16T01:50:42.937Z,0.40
2024-03-16T01:53:13.119Z,0.30
2024-03-16T01:55:40.203Z,0.33
2024-03-16T01:58:07.629Z,0.30
2024-03-16T02:00:35.569Z,0.40
2024-03-16T02:03:03.410Z,0.40
2024-03-16T02:05:32.441Z,0.50
2024-03-16T02:08:00.388Z,0.57
2024-03-16T02:10:27.259Z,0.40
2024-03-16T02:12:54.172Z,0.33
2024-03-16T02:15:20.997Z,0.40
2024-03-16T02:17:48.057Z,0.40
2024-03-16T02:20:17.868Z,0.43
2024-03-16T02:22:44.798Z,0.40
2024-03-16T02:25:12.037Z,0.40
2024-03-16T02:27:39.040Z,0.47
2024-03-16T02:30:11.091Z,0.50
2024-03-16T02:32:38.609Z,0.40
2024-03-16T02:35:09.108Z,0.40
2024-03-16T02:37:37.149Z,0.60
2024-03-16T02:40:05.142Z,0.60
2024-03-16T02:42:32.252Z,0.70
2024-03-16T02:44:59.036Z,0.73
2024-03-16T02:47:25.846Z,0.80
2024-03-16T02:49:54.124Z,0.70
2024-03-16T02:52:20.941Z,0.60
2024-03-16T02:54:47.794Z,0.60
2024-03-16T02:57:14.754Z,1.00
2024-03-16T02:59:41.607Z,1.10
2024-03-16T03:02:08.378Z,0.90
2024-03-16T03:04:35.440Z,0.73
2024-03-16T03:07:02.721Z,0.70
2024-03-16T03:09:30.381Z,0.80
2024-03-16T03:11:57.150Z,0.70
2024-03-16T03:14:23.974Z,0.87
2024-03-16T03:16:50.800Z,0.70
2024-03-16T03:19:17.639Z,1.10
2024-03-16T03:21:44.469Z,0.70
2024-03-16T03:24:11.340Z,0.80
2024-03-16T03:26:38.130Z,0.90
2024-03-16T03:29:04.873Z,1.27
2024-03-16T03:31:31.673Z,1.17
2024-03-16T03:33:58.926Z,1.00
2024-03-16T03:36:26.096Z,1.00
2024-03-16T03:38:52.939Z,1.07
2024-03-16T03:41:19.894Z,1.00
2024-03-16T03:43:58.355Z,0.60
2024-03-16T03:46:50.784Z,0.60
2024-03-16T03:49:32.861Z,0.67
2024-03-16T03:51:59.928Z,0.70
2024-03-16T03:54:27.423Z,0.70
2024-03-16T03:56:54.214Z,0.70
2024-03-16T03:59:21.183Z,0.70
2024-03-16T04:01:48.145Z,0.57
2024-03-16T04:04:15.118Z,0.40
2024-03-16T04:06:45.627Z,0.60
2024-03-16T04:09:13.371Z,0.37
2024-03-16T04:11:43.098Z,0.30
2024-03-16T04:14:09.902Z,0.50
2024-03-16T04:16:36.730Z,0.60
2024-03-16T04:19:04.371Z,0.30
2024-03-16T04:21:31.604Z,0.30
2024-03-16T04:23:58.526Z,0.20
2024-03-16T04:26:26.223Z,0.40
2024-03-16T04:28:53.152Z,0.40
2024-03-16T04:31:19.955Z,0.23
2024-03-16T04:33:46.802Z,0.40
2024-03-16T04:36:13.830Z,0.30
2024-03-16T04:38:40.715Z,0.40
2024-03-16T04:41:07.546Z,0.30
2024-03-16T04:43:35.111Z,0.40
2024-03-16T04:46:01.981Z,0.20
2024-03-16T04:48:28.880Z,0.40
2024-03-16T04:50:57.117Z,0.30
2024-03-16T04:53:24.051Z,0.20
2024-03-16T04:55:53.466Z,0.20
2024-03-16T04:58:20.334Z,0.30
2024-03-16T05:00:47.332Z,0.20
2024-03-16T05:03:14.254Z,0.30
2024-03-16T05:05:41.056Z,0.30
2024-03-16T05:08:08.752Z,0.20
2024-03-16T05:10:35.620Z,0.30
2024-03-16T05:13:02.755Z,0.30
2024-03-16T05:15:29.784Z,0.50
2024-03-16T05:17:56.884Z,0.30
2024-03-16T05:20:23.810Z,0.40
2024-03-16T05:22:50.664Z,0.20
2024-03-16T05:25:17.585Z,0.40
2024-03-16T05:27:44.526Z,0.20
2024-03-16T05:30:12.572Z,0.43
2024-03-16T05:32:39.578Z,0.20
2024-03-16T05:35:09.499Z,0.30
2024-03-16T05:37:36.948Z,0.20
2024-03-16T05:40:04.437Z,0.37
2024-03-16T05:42:31.949Z,0.30
2024-03-16T05:45:00.967Z,0.30
2024-03-16T05:47:27.930Z,0.40
2024-03-16T05:49:55.605Z,0.30
2024-03-16T05:52:22.440Z,0.30
2024-03-16T05:54:49.301Z,0.23
2024-03-16T05:57:17.235Z,0.30
2024-03-16T05:59:44.083Z,0.30
2024-03-16T06:02:10.958Z,0.20
2024-03-16T06:04:38.076Z,0.10
2024-03-16T06:07:05.411Z,0.23
2024-03-16T06:09:32.315Z,0.30
2024-03-16T06:11:59.086Z,0.30
2024-03-16T06:14:25.997Z,0.40
2024-03-16T06:16:53.319Z,0.40
2024-03-16T06:19:20.136Z,0.40
2024-03-16T06:21:47.040Z,0.30
2024-03-16T06:24:14.111Z,0.33
2024-03-16T06:26:42.220Z,0.40
2024-03-16T06:29:11.603Z,0.40
2024-03-16T06:31:39.915Z,0.30
2024-03-16T06:34:07.141Z,0.30
2024-03-16T06:36:35.142Z,0.30
2024-03-16T06:39:03.890Z,0.30
2024-03-16T06:41:31.992Z,0.30
2024-03-16T06:43:58.802Z,0.30
2024-03-16T06:46:25.585Z,0.40
2024-03-16T06:48:52.448Z,0.40
2024-03-16T06:51:19.929Z,0.40
2024-03-16T06:53:50.632Z,0.33
2024-03-16T06:56:17.520Z,0.50
2024-03-16T06:58:44.407Z,0.47
2024-03-16T07:01:13.483Z,0.40
2024-03-16T07:03:41.410Z,0.30
2024-03-16T07:06:09.913Z,0.40
2024-03-16T07:08:39.854Z,0.30
2024-03-16T07:11:06.833Z,0.30
2024-03-16T07:13:33.886Z,0.50
2024-03-16T07:16:00.835Z,0.30
2024-03-16T07:18:28.021Z,0.37
2024-03-16T07:20:54.901Z,0.30
2024-03-16T07:23:21.732Z,0.30
2024-03-16T07:25:51.693Z,0.30
2024-03-16T07:28:18.785Z,0.30
2024-03-16T07:30:46.334Z,0.30
2024-03-16T07:33:14.727Z,0.30
2024-03-16T07:35:42.313Z,0.23
2024-03-16T07:38:09.388Z,0.30
2024-03-16T07:40:36.362Z,0.50
2024-03-16T07:43:04.559Z,0.40
2024-03-16T07:45:31.462Z,0.40
2024-03-16T07:47:58.327Z,0.33
2024-03-16T07:50:25.098Z,0.53
2024-03-16T07:52:51.970Z,0.30
2024-03-16T07:55:18.816Z,0.50
2024-03-16T07:57:46.844Z,0.40
2024-03-16T08:00:14.416Z,0.37
2024-03-16T08:02:41.490Z,0.37
2024-03-16T08:05:12.224Z,0.30
2024-03-16T08:07:42.886Z,0.30
2024-03-16T08:10:12.623Z,0.40
2024-03-16T08:12:39.820Z,0.50
2024-03-16T08:15:07.552Z,0.40
2024-03-16T08:17:34.540Z,0.70
2024-03-16T08:20:01.389Z,0.50
2024-03-16T08:22:28.179Z,0.40
2024-03-16T08:24:55.036Z,0.50
2024-03-16T08:27:25.211Z,0.50
2024-03-16T08:29:53.560Z,0.40
2024-03-16T08:32:20.374Z,0.70
2024-03-16T08:34:48.216Z,0.60
2024-03-16T08:37:17.441Z,0.60
2024-03-16T08:39:45.192Z,0.60
2024-03-16T08:42:13.934Z,0.70
2024-03-16T08:44:40.799Z,0.80
2024-03-16T08:47:07.703Z,0.80
2024-03-16T08:49:35.242Z,0.97
2024-03-16T08:52:02.158Z,0.73
2024-03-16T08:54:30.980Z,1.00
2024-03-16T08:56:57.897Z,0.67
2024-03-16T08:59:24.957Z,1.00
2024-03-16T09:01:52.179Z,0.70
2024-03-16T09:04:19.161Z,0.70
2024-03-16T09:06:46.289Z,0.83
2024-03-16T09:09:13.442Z,0.60
2024-03-16T09:11:40.818Z,0.50
2024-03-16T09:14:07.800Z,0.90
2024-03-16T09:16:41.597Z,0.90
2024-03-16T09:19:09.044Z,0.90
2024-03-16T09:21:35.979Z,0.83
2024-03-16T09:24:02.861Z,0.90
2024-03-16T09:26:29.698Z,0.90
2024-03-16T09:28:56.557Z,0.83
2024-03-16T09:31:26.486Z,1.10
2024-03-16T09:33:53.664Z,0.50
2024-03-16T09:36:20.947Z,0.93
2024-03-16T09:38:48.579Z,1.00
2024-03-16T09:41:20.339Z,1.00
